createdAt,value
2022-08-01T00:00:53.232Z,16.91
2022-08-01T00:03:55.867Z,16.93
2022-08-01T00:06:58.242Z,16.88
2022-08-01T00:10:02.604Z,16.94
2022-08-01T00:13:04.999Z,16.92
2022-08-01T00:16:07.741Z,16.90
2022-08-01T00:19:10.027Z,16.93
2022-08-01T00:22:12.634Z,16.87
2022-08-01T00:25:15.063Z,16.94
2022-08-01T00:28:17.656Z,16.89
2022-08-01T00:31:21.362Z,16.86
2022-08-01T00:34:24.036Z,16.87
2022-08-01T00:37:26.350Z,16.77
2022-08-01T00:40:29.216Z,16.86
2022-08-01T00:43:31.560Z,16.85
2022-08-01T00:46:34.467Z,16.83
2022-08-01T00:49:36.913Z,16.81
2022-08-01T00:52:40.784Z,16.76
2022-08-01T00:55:43.559Z,16.76
2022-08-01T00:58:46.228Z,16.67
2022-08-01T01:01:50.009Z,16.60
2022-08-01T01:04:52.751Z,16.50
2022-08-01T01:07:57.833Z,16.50
2022-08-01T01:11:04.632Z,16.45
2022-08-01T01:14:11.070Z,16.40
2022-08-01T01:17:15.988Z,16.47
2022-08-01T01:20:19.261Z,16.38
2022-08-01T01:23:37.078Z,16.42
2022-08-01T01:26:58.275Z,16.51
2022-08-01T01:30:01.833Z,16.58
2022-08-01T01:33:06.737Z,16.66
2022-08-01T01:36:11.443Z,16.64
2022-08-01T01:39:15.216Z,16.59
2022-08-01T01:42:18.472Z,16.54
2022-08-01T01:45:22.428Z,16.51
2022-08-01T01:48:26.128Z,16.51
2022-08-01T01:51:29.642Z,16.63
2022-08-01T01:54:34.273Z,16.70
2022-08-01T01:57:39.025Z,16.82
2022-08-01T02:00:43.359Z,16.88
2022-08-01T02:03:50.699Z,16.89
2022-08-01T02:06:53.602Z,16.86
2022-08-01T02:09:56.997Z,16.85
2022-08-01T02:13:00.787Z,16.94
2022-08-01T02:16:04.056Z,17.23
2022-08-01T02:19:07.219Z,17.29
2022-08-01T02:25:23.583Z,17.26
2022-08-01T02:28:30.539Z,17.42
2022-08-01T02:31:34.993Z,17.35
2022-08-01T02:34:37.242Z,17.33
2022-08-01T02:37:41.675Z,17.26
2022-08-01T02:40:49.842Z,17.30
2022-08-01T02:43:53.760Z,17.29
2022-08-01T02:46:58.630Z,17.18
2022-08-01T02:50:01.807Z,17.10
2022-08-01T02:53:04.995Z,17.00
2022-08-01T02:56:09.021Z,16.97
2022-08-01T02:59:15.276Z,16.97
2022-08-01T03:02:18.334Z,16.93
2022-08-01T03:05:21.033Z,16.84
2022-08-01T03:08:24.850Z,16.84
2022-08-01T03:11:29.355Z,16.78
2022-08-01T03:14:35.378Z,16.76
2022-08-01T03:17:38.811Z,16.67
2022-08-01T03:20:42.682Z,16.59
2022-08-01T03:23:46.408Z,16.61
2022-08-01T03:26:49.695Z,16.51
2022-08-01T03:29:52.955Z,16.46
2022-08-01T03:32:56.481Z,16.52
2022-08-01T03:36:01.163Z,16.46
2022-08-01T03:39:04.756Z,16.41
2022-08-01T03:42:11.059Z,16.32
2022-08-01T03:45:24.359Z,16.30
2022-08-01T03:48:29.480Z,16.27
2022-08-01T03:51:33.019Z,16.31
2022-08-01T03:54:37.411Z,16.35
2022-08-01T03:57:40.220Z,16.44
2022-08-01T04:00:42.911Z,16.42
2022-08-01T04:03:45.954Z,16.45
2022-08-01T04:06:51.458Z,16.58
2022-08-01T04:09:54.287Z,16.67
2022-08-01T04:12:56.659Z,16.80
2022-08-01T04:15:59.364Z,16.97
2022-08-01T04:19:01.870Z,17.00
2022-08-01T04:22:05.763Z,17.08
2022-08-01T04:25:10.356Z,17.13
2022-08-01T04:28:17.293Z,17.17
2022-08-01T04:31:20.039Z,17.27
2022-08-01T04:34:23.973Z,17.30
2022-08-01T04:37:26.802Z,17.30
2022-08-01T04:40:30.434Z,17.44
2022-08-01T04:43:32.830Z,17.49
2022-08-01T04:46:35.926Z,17.58
2022-08-01T04:49:49.153Z,17.68
2022-08-01T04:52:52.611Z,17.75
2022-08-01T04:55:54.967Z,17.84
2022-08-01T04:59:19.796Z,17.97
2022-08-01T05:02:22.496Z,18.08
2022-08-01T05:05:27.219Z,18.33
2022-08-01T05:08:29.581Z,19.12
2022-08-01T05:11:32.231Z,22.00
2022-08-01T05:14:34.635Z,23.44
2022-08-01T05:17:37.472Z,22.30
2022-08-01T05:20:39.905Z,21.24
2022-08-01T05:23:43.641Z,20.68
2022-08-01T05:26:45.997Z,20.72
2022-08-01T05:29:50.854Z,20.58
2022-08-01T05:32:53.751Z,20.22
2022-08-01T05:35:56.294Z,20.26
2022-08-01T05:38:58.614Z,20.17
2022-08-01T05:42:01.209Z,20.27
2022-08-01T05:45:03.668Z,20.42
2022-08-01T05:48:06.542Z,20.96
2022-08-01T05:51:08.862Z,21.39
2022-08-01T05:54:11.511Z,21.56
2022-08-01T05:57:13.848Z,21.47
2022-08-01T06:00:18.135Z,21.39
2022-08-01T06:03:20.839Z,21.88
2022-08-01T06:06:25.523Z,21.98
2022-08-01T06:09:28.277Z,22.33
2022-08-01T06:12:35.614Z,22.52
2022-08-01T06:15:38.533Z,22.39
2022-08-01T06:18:41.160Z,22.26
2022-08-01T06:21:43.771Z,22.23
2022-08-01T06:24:46.086Z,22.03
2022-08-01T06:27:49.072Z,22.02
2022-08-01T06:30:51.624Z,22.21
2022-08-01T06:33:54.170Z,22.35
2022-08-01T06:36:56.481Z,22.40
2022-08-01T06:40:14.771Z,22.63
2022-08-01T06:43:20.345Z,22.89
2022-08-01T06:46:22.935Z,22.96
2022-08-01T06:49:25.679Z,23.05
2022-08-01T06:52:28.248Z,23.43
2022-08-01T06:55:30.674Z,23.84
2022-08-01T06:58:35.360Z,24.13
2022-08-01T07:01:37.945Z,25.49
2022-08-01T07:04:40.640Z,30.82
2022-08-01T07:07:43.063Z,36.25
2022-08-01T07:10:46.680Z,38.03
2022-08-01T07:13:49.218Z,38.29
2022-08-01T07:16:51.905Z,39.47
2022-08-01T07:19:55.517Z,39.99
2022-08-01T07:23:00.479Z,38.61
2022-08-01T07:26:04.630Z,37.62
2022-08-01T07:29:07.239Z,40.54
2022-08-01T07:32:09.735Z,41.49
2022-08-01T07:35:12.345Z,40.58
2022-08-01T07:38:17.780Z,41.07
2022-08-01T07:41:20.424Z,43.19
2022-08-01T07:44:22.690Z,42.43
2022-08-01T07:47:26.216Z,43.03
2022-08-01T07:50:28.770Z,43.91
2022-08-01T07:53:36.200Z,45.25
2022-08-01T07:56:38.759Z,44.62
2022-08-01T07:59:41.383Z,45.00
2022-08-01T08:02:43.804Z,43.35
2022-08-01T08:05:58.346Z,42.94
2022-08-01T08:09:02.641Z,45.44
2022-08-01T08:12:06.141Z,46.92
2022-08-01T08:15:08.840Z,45.73
2022-08-01T08:18:11.783Z,44.92
2022-08-01T08:21:14.245Z,43.53
2022-08-01T08:24:26.337Z,39.51
2022-08-01T08:27:29.230Z,36.26
2022-08-01T08:30:32.063Z,33.37
2022-08-01T08:33:34.364Z,31.14
2022-08-01T08:36:36.957Z,29.09
2022-08-01T08:39:41.537Z,27.67
2022-08-01T08:42:45.282Z,27.30
2022-08-01T08:45:58.755Z,26.77
2022-08-01T08:49:04.629Z,26.81
2022-08-01T08:52:10.654Z,26.70
2022-08-01T08:55:15.634Z,26.42
2022-08-01T08:58:19.059Z,26.28
2022-08-01T09:01:22.834Z,26.11
2022-08-01T09:04:26.641Z,26.29
2022-08-01T09:07:29.521Z,26.59
2022-08-01T09:10:32.281Z,26.76
2022-08-01T09:13:37.699Z,27.10
2022-08-01T09:16:48.998Z,27.32
2022-08-01T09:19:54.504Z,27.05
2022-08-01T09:22:57.170Z,26.86
2022-08-01T09:25:59.987Z,26.56
2022-08-01T09:29:04.036Z,26.61
2022-08-01T09:32:14.013Z,26.83
2022-08-01T09:35:43.415Z,26.68
2022-08-01T09:38:50.850Z,26.53
2022-08-01T09:41:54.889Z,26.66
2022-08-01T09:44:58.926Z,27.09
2022-08-01T09:48:06.869Z,27.66
2022-08-01T09:51:14.005Z,28.64
2022-08-01T09:54:36.393Z,29.09
2022-08-01T09:57:39.696Z,29.52
2022-08-01T10:00:45.628Z,29.01
2022-08-01T10:04:04.912Z,28.00
2022-08-01T10:07:08.797Z,27.74
2022-08-01T10:10:12.653Z,28.12
2022-08-01T10:13:16.706Z,28.73
2022-08-01T10:16:20.137Z,29.54
2022-08-01T10:19:24.594Z,29.87
2022-08-01T10:22:28.474Z,29.63
2022-08-01T10:25:42.417Z,29.77
2022-08-01T10:28:49.000Z,29.91
2022-08-01T10:31:52.802Z,29.74
2022-08-01T10:34:56.009Z,28.99
2022-08-01T10:37:59.138Z,28.78
2022-08-01T10:41:03.147Z,29.01
2022-08-01T10:44:09.420Z,28.88
2022-08-01T10:47:13.328Z,28.85
2022-08-01T10:50:25.805Z,29.17
2022-08-01T10:53:31.504Z,29.05
2022-08-01T10:56:45.920Z,29.38
2022-08-01T11:00:01.015Z,29.72
2022-08-01T11:03:04.873Z,29.81
2022-08-01T11:06:08.307Z,30.21
2022-08-01T11:09:16.554Z,30.35
2022-08-01T11:12:22.906Z,30.78
2022-08-01T11:15:29.838Z,30.91
2022-08-01T11:18:37.604Z,30.81
2022-08-01T11:21:59.305Z,31.16
2022-08-01T11:25:02.815Z,31.15
2022-08-01T11:28:15.295Z,31.32
2022-08-01T11:31:21.164Z,31.63
2022-08-01T11:34:43.344Z,31.60
2022-08-01T11:37:46.111Z,31.12
2022-08-01T11:40:50.854Z,30.84
2022-08-01T11:44:02.224Z,30.80
2022-08-01T11:47:08.698Z,31.30
2022-08-01T11:50:35.800Z,31.41
2022-08-01T11:53:46.311Z,31.99
2022-08-01T11:56:48.971Z,31.97
2022-08-01T12:00:02.796Z,31.62
2022-08-01T12:03:21.545Z,31.42
2022-08-01T12:06:35.965Z,31.27
2022-08-01T12:09:38.415Z,31.46
2022-08-01T12:13:10.768Z,30.90
2022-08-01T12:16:13.576Z,31.15
2022-08-01T12:19:23.277Z,30.77
2022-08-01T12:22:26.595Z,30.78
2022-08-01T12:25:29.327Z,30.90
2022-08-01T12:28:39.577Z,30.73
2022-08-01T12:31:42.299Z,30.91
2022-08-01T12:34:44.591Z,31.36
2022-08-01T12:37:48.398Z,31.62
2022-08-01T12:40:53.638Z,32.10
2022-08-01T12:43:57.459Z,32.27
2022-08-01T12:47:01.676Z,31.83
2022-08-01T12:50:06.515Z,32.01
2022-08-01T12:53:10.468Z,32.10
2022-08-01T12:56:31.598Z,31.14
2022-08-01T12:59:33.922Z,31.52
2022-08-01T13:02:36.933Z,32.27
2022-08-01T13:05:45.273Z,32.02
2022-08-01T13:08:47.941Z,31.32
2022-08-01T13:12:02.828Z,30.86
2022-08-01T13:15:22.692Z,31.24
2022-08-01T13:18:33.243Z,31.01
2022-08-01T13:21:54.531Z,30.78
2022-08-01T13:25:09.870Z,30.47
2022-08-01T13:28:18.271Z,30.06
2022-08-01T13:31:20.617Z,29.59
2022-08-01T13:34:33.631Z,30.21
2022-08-01T13:37:37.180Z,30.49
2022-08-01T13:40:41.700Z,30.29
2022-08-01T13:43:58.317Z,29.91
2022-08-01T13:47:03.211Z,29.92
2022-08-01T13:50:19.373Z,30.05
2022-08-01T13:53:22.196Z,30.32
2022-08-01T13:56:25.806Z,30.69
2022-08-01T13:59:28.620Z,30.68
2022-08-01T14:02:30.936Z,30.50
2022-08-01T14:05:33.917Z,30.53
2022-08-01T14:08:36.182Z,30.56
2022-08-01T14:11:39.022Z,30.42
2022-08-01T14:14:48.119Z,30.58
2022-08-01T14:17:50.762Z,30.41
2022-08-01T14:20:53.850Z,30.19
2022-08-01T14:23:59.351Z,30.21
2022-08-01T14:27:03.056Z,30.12
2022-08-01T14:30:06.906Z,30.06
2022-08-01T14:33:09.856Z,30.35
2022-08-01T14:36:30.004Z,29.91
2022-08-01T14:39:33.744Z,29.79
2022-08-01T14:42:38.050Z,29.98
2022-08-01T14:45:40.983Z,30.00
2022-08-01T14:48:44.023Z,30.03
2022-08-01T14:51:46.427Z,29.91
2022-08-01T14:54:49.024Z,29.79
2022-08-01T14:57:51.867Z,29.82
2022-08-01T15:00:58.493Z,29.79
2022-08-01T15:04:01.715Z,29.69
2022-08-01T15:07:07.141Z,29.71
2022-08-01T15:10:11.469Z,29.57
2022-08-01T15:13:14.129Z,29.49
2022-08-01T15:16:16.397Z,29.53
2022-08-01T15:19:18.998Z,29.50
2022-08-01T15:22:22.480Z,29.28
2022-08-01T15:25:25.071Z,29.25
2022-08-01T15:28:27.659Z,29.25
2022-08-01T15:31:30.222Z,28.81
2022-08-01T15:34:38.447Z,28.81
2022-08-01T15:37:43.223Z,29.08
2022-08-01T15:40:46.412Z,29.09
2022-08-01T15:43:55.731Z,28.97
2022-08-01T15:46:58.640Z,29.02
2022-08-01T15:50:02.887Z,28.93
2022-08-01T15:53:05.749Z,28.86
2022-08-01T15:56:08.429Z,28.92
2022-08-01T15:59:10.927Z,28.95
2022-08-01T16:02:14.590Z,28.86
2022-08-01T16:05:20.433Z,28.87
2022-08-01T16:08:23.170Z,28.87
2022-08-01T16:11:27.680Z,28.87
2022-08-01T16:14:30.108Z,28.83
2022-08-01T16:17:32.645Z,28.78
2022-08-01T16:20:35.307Z,28.80
2022-08-01T16:23:41.365Z,28.56
2022-08-01T16:26:43.685Z,28.45
2022-08-01T16:29:46.350Z,28.55
2022-08-01T16:32:52.479Z,28.53
2022-08-01T16:36:03.703Z,28.51
2022-08-01T16:39:07.716Z,28.42
2022-08-01T16:42:10.887Z,28.42
2022-08-01T16:45:14.607Z,28.39
2022-08-01T16:48:20.179Z,28.20
2022-08-01T16:51:22.540Z,28.09
2022-08-01T16:54:26.424Z,28.00
2022-08-01T16:57:32.963Z,27.93
2022-08-01T17:00:43.164Z,27.89
2022-08-01T17:03:52.610Z,27.78
2022-08-01T17:06:56.748Z,27.81
2022-08-01T17:10:01.021Z,27.67
2022-08-01T17:13:03.731Z,27.55
2022-08-01T17:16:07.194Z,27.52
2022-08-01T17:19:10.177Z,27.46
2022-08-01T17:22:13.185Z,27.30
2022-08-01T17:25:16.244Z,27.16
2022-08-01T17:28:19.824Z,27.17
2022-08-01T17:31:22.583Z,27.08
2022-08-01T17:34:24.972Z,27.03
2022-08-01T17:37:27.614Z,26.85
2022-08-01T17:40:40.212Z,26.72
2022-08-01T17:43:43.670Z,26.56
2022-08-01T17:46:45.952Z,26.41
2022-08-01T17:49:56.775Z,26.29
2022-08-01T17:52:59.557Z,26.23
2022-08-01T17:56:05.553Z,26.06
2022-08-01T17:59:08.217Z,26.00
2022-08-01T18:02:11.092Z,26.05
2022-08-01T18:05:15.735Z,25.94
2022-08-01T18:08:18.665Z,25.84
2022-08-01T18:11:21.729Z,25.67
2022-08-01T18:14:40.175Z,25.47
2022-08-01T18:17:43.995Z,25.31
2022-08-01T18:20:49.444Z,25.22
2022-08-01T18:23:52.512Z,25.22
2022-08-01T18:26:55.177Z,25.04
2022-08-01T18:29:57.994Z,24.94
2022-08-01T18:33:00.316Z,24.82
2022-08-01T18:36:04.931Z,24.71
2022-08-01T18:39:10.403Z,24.62
2022-08-01T18:42:13.455Z,24.54
2022-08-01T18:45:15.798Z,24.48
2022-08-01T18:48:18.807Z,24.36
2022-08-01T18:51:21.147Z,24.33
2022-08-01T18:54:25.602Z,24.23
2022-08-01T18:57:27.959Z,24.15
2022-08-01T19:00:31.677Z,24.10
2022-08-01T19:03:34.345Z,24.07
2022-08-01T19:06:38.897Z,24.07
2022-08-01T19:09:42.912Z,24.02
2022-08-01T19:12:45.517Z,23.95
2022-08-01T19:15:48.663Z,23.86
2022-08-01T19:18:51.391Z,23.83
2022-08-01T19:21:54.284Z,23.72
2022-08-01T19:24:56.937Z,23.69
2022-08-01T19:27:59.898Z,23.70
2022-08-01T19:31:03.403Z,23.65
2022-08-01T19:34:06.005Z,23.55
2022-08-01T19:37:08.964Z,23.56
2022-08-01T19:40:12.659Z,23.54
2022-08-01T19:43:33.346Z,23.47
2022-08-01T19:46:38.871Z,23.33
2022-08-01T19:49:41.690Z,23.24
2022-08-01T19:52:44.673Z,23.10
2022-08-01T19:55:47.412Z,23.04
2022-08-01T19:58:52.644Z,23.06
2022-08-01T20:02:03.814Z,22.92
2022-08-01T20:05:06.800Z,22.81
2022-08-01T20:08:09.490Z,22.71
2022-08-01T20:11:14.652Z,22.67
2022-08-01T20:14:19.382Z,22.61
2022-08-01T20:17:23.046Z,22.55
2022-08-01T20:20:33.330Z,22.48
2022-08-01T20:23:39.403Z,22.46
2022-08-01T20:26:43.975Z,22.47
2022-08-01T20:29:49.613Z,22.60
2022-08-01T20:32:52.568Z,22.76
2022-08-01T20:36:02.298Z,22.88
2022-08-01T20:39:04.707Z,22.99
2022-08-01T20:42:11.486Z,23.05
2022-08-01T20:45:18.334Z,23.06
2022-08-01T20:48:22.125Z,23.01
2022-08-01T20:51:25.043Z,22.99
2022-08-01T20:54:29.379Z,23.02
2022-08-01T20:57:32.335Z,22.97
2022-08-01T21:00:35.393Z,22.83
2022-08-01T21:03:42.802Z,22.78
2022-08-01T21:06:55.847Z,22.77
2022-08-01T21:09:58.591Z,22.76
2022-08-01T21:13:01.680Z,22.70
2022-08-01T21:16:23.043Z,22.66
2022-08-01T21:19:27.976Z,22.60
2022-08-01T21:22:36.563Z,22.60
2022-08-01T21:25:41.614Z,22.67
2022-08-01T21:28:53.959Z,22.72
2022-08-01T21:32:12.922Z,22.58
2022-08-01T21:35:16.622Z,22.43
2022-08-01T21:38:22.308Z,22.34
2022-08-01T21:42:04.807Z,22.31
2022-08-01T21:44:48.648Z,22.30
2022-08-01T21:47:51.646Z,22.19
2022-08-01T21:50:58.975Z,22.16
2022-08-01T21:54:10.130Z,22.17
2022-08-01T21:57:23.707Z,22.10
2022-08-01T22:00:26.922Z,21.94
2022-08-01T22:03:39.941Z,21.78
2022-08-01T22:06:48.029Z,21.68
2022-08-01T22:09:51.297Z,21.55
2022-08-01T22:12:54.017Z,21.44
2022-08-01T22:15:57.323Z,21.38
2022-08-01T22:19:03.283Z,21.28
2022-08-01T22:22:42.465Z,21.23
2022-08-01T22:25:32.635Z,21.18
2022-08-01T22:28:36.179Z,21.16
2022-08-01T22:31:38.847Z,21.15
2022-08-01T22:34:41.479Z,21.15
2022-08-01T22:37:57.123Z,21.12
2022-08-01T22:41:00.083Z,21.10
2022-08-01T22:44:14.015Z,21.08
2022-08-01T22:47:26.085Z,21.05
2022-08-01T22:50:48.863Z,20.98
2022-08-01T22:54:09.764Z,20.94
2022-08-01T22:57:15.430Z,20.93
2022-08-01T23:00:18.371Z,21.05
2022-08-01T23:03:26.218Z,20.93
2022-08-01T23:06:40.446Z,20.80
2022-08-01T23:09:53.911Z,20.74
2022-08-01T23:12:57.684Z,20.70
2022-08-01T23:16:01.025Z,20.70
2022-08-01T23:19:03.919Z,20.69
2022-08-01T23:22:06.658Z,20.64
2022-08-01T23:25:11.017Z,20.60
2022-08-01T23:28:14.076Z,20.62
2022-08-01T23:31:17.605Z,20.60
2022-08-01T23:34:20.288Z,20.67
2022-08-01T23:37:22.949Z,20.65
2022-08-01T23:40:25.579Z,20.60
2022-08-01T23:43:28.143Z,20.51
2022-08-01T23:46:30.380Z,20.47
2022-08-01T23:49:33.141Z,20.43
2022-08-01T23:52:55.360Z,20.41
2022-08-01T23:56:02.736Z,20.33
2022-08-01T23:59:05.240Z,20.33
